sensor_id;sensor_type;location;lat;lon;timestamp;temperature;humidity
20035;DHT22;10178;48.034;9.800;2023-04-25T00:00:19;12.00;99.90
20035;DHT22;10178;48.034;9.800;2023-04-25T00:02:44;12.00;99.90
20035;DHT22;10178;48.034;9.800;2023-04-25T00:05:12;11.90;99.90
20035;DHT22;10178;48.034;9.800;2023-04-25T00:07:38;11.90;99.90
20035;DHT22;10178;48.034;9.800;2023-04-25T00:10:04;11.30;99.90
20035;DHT22;10178;48.034;9.800;2023-04-25T00:12:30;11.50;99.90
20035;DHT22;10178;48.034;9.800;2023-04-25T00:14:56;11.70;99.90
20035;DHT22;10178;48.034;9.800;2023-04-25T00:17:25;11.80;99.90
20035;DHT22;10178;48.034;9.800;2023-04-25T00:19:52;11.80;99.90
20035;DHT22;10178;48.034;9.800;2023-04-25T00:22:18;11.80;99.90
20035;DHT22;10178;48.034;9.800;2023-04-25T00:24:43;11.80;99.90
20035;DHT22;10178;48.034;9.800;2023-04-25T00:27:09;11.80;99.90
20035;DHT22;10178;48.034;9.800;2023-04-25T00:29:34;11.80;99.90
20035;DHT22;10178;48.034;9.800;2023-04-25T00:32:00;11.20;99.90
20035;DHT22;10178;48.034;9.800;2023-04-25T00:34:26;10.90;99.90
20035;DHT22;10178;48.034;9.800;2023-04-25T00:36:52;11.20;99.90
20035;DHT22;10178;48.034;9.800;2023-04-25T00:39:17;11.40;99.90
20035;DHT22;10178;48.034;9.800;2023-04-25T00:41:43;11.60;99.90
20035;DHT22;10178;48.034;9.800;2023-04-25T00:44:11;11.60;99.90
20035;DHT22;10178;48.034;9.800;2023-04-25T00:46:38;11.70;99.90
20035;DHT22;10178;48.034;9.800;2023-04-25T00:49:04;11.70;99.90
20035;DHT22;10178;48.034;9.800;2023-04-25T00:51:30;11.70;99.90
20035;DHT22;10178;48.034;9.800;2023-04-25T00:53:56;11.70;99.90
20035;DHT22;10178;48.034;9.800;2023-04-25T00:56:22;11.70;99.90
20035;DHT22;10178;48.034;9.800;2023-04-25T00:58:48;11.70;99.90
20035;DHT22;10178;48.034;9.800;2023-04-25T01:01:14;11.60;99.90
20035;DHT22;10178;48.034;9.800;2023-04-25T01:03:40;11.40;99.90
20035;DHT22;10178;48.034;9.800;2023-04-25T01:06:08;11.30;99.90
20035;DHT22;10178;48.034;9.800;2023-04-25T01:08:34;11.30;99.90
20035;DHT22;10178;48.034;9.800;2023-04-25T01:11:00;11.30;99.90
20035;DHT22;10178;48.034;9.800;2023-04-25T01:13:26;10.60;99.90
20035;DHT22;10178;48.034;9.800;2023-04-25T01:15:52;10.80;99.90
20035;DHT22;10178;48.034;9.800;2023-04-25T01:18:19;10.90;99.90
20035;DHT22;10178;48.034;9.800;2023-04-25T01:20:46;11.00;99.90
20035;DHT22;10178;48.034;9.800;2023-04-25T01:23:12;11.00;99.90
20035;DHT22;10178;48.034;9.800;2023-04-25T01:25:38;11.10;99.90
20035;DHT22;10178;48.034;9.800;2023-04-25T01:28:04;11.00;99.90
20035;DHT22;10178;48.034;9.800;2023-04-25T01:30:30;9.90;99.90
20035;DHT22;10178;48.034;9.800;2023-04-25T01:32:56;8.90;99.90
20035;DHT22;10178;48.034;9.800;2023-04-25T01:35:23;8.10;99.90
20035;DHT22;10178;48.034;9.800;2023-04-25T01:37:52;7.80;99.90
20035;DHT22;10178;48.034;9.800;2023-04-25T01:40:17;7.60;99.90
20035;DHT22;10178;48.034;9.800;2023-04-25T01:42:44;7.60;99.90
20035;DHT22;10178;48.034;9.800;2023-04-25T01:45:11;7.40;99.90
20035;DHT22;10178;48.034;9.800;2023-04-25T01:47:38;7.60;99.90
20035;DHT22;10178;48.034;9.800;2023-04-25T01:50:07;7.70;99.90
20035;DHT22;10178;48.034;9.800;2023-04-25T01:52:33;7.60;99.90
20035;DHT22;10178;48.034;9.800;2023-04-25T01:55:01;7.20;99.90
20035;DHT22;10178;48.034;9.800;2023-04-25T01:57:27;7.30;99.90
20035;DHT22;10178;48.034;9.800;2023-04-25T01:59:58;7.50;99.90
20035;DHT22;10178;48.034;9.800;2023-04-25T02:02:24;7.30;99.90
20035;DHT22;10178;48.034;9.800;2023-04-25T02:04:49;7.10;99.90
20035;DHT22;10178;48.034;9.800;2023-04-25T02:07:15;7.30;99.90
20035;DHT22;10178;48.034;9.800;2023-04-25T02:09:41;7.80;99.90
20035;DHT22;10178;48.034;9.800;2023-04-25T02:12:09;7.90;99.90
20035;DHT22;10178;48.034;9.800;2023-04-25T02:14:35;8.20;99.90
20035;DHT22;10178;48.034;9.800;2023-04-25T02:17:00;8.80;99.90
20035;DHT22;10178;48.034;9.800;2023-04-25T02:19:26;8.20;99.90
20035;DHT22;10178;48.034;9.800;2023-04-25T02:21:51;7.60;99.90
20035;DHT22;10178;48.034;9.800;2023-04-25T02:24:17;7.50;99.90
20035;DHT22;10178;48.034;9.800;2023-04-25T02:26:43;8.10;99.90
20035;DHT22;10178;48.034;9.800;2023-04-25T02:29:09;8.50;99.90
20035;DHT22;10178;48.034;9.800;2023-04-25T02:31:35;8.40;99.90
20035;DHT22;10178;48.034;9.800;2023-04-25T02:34:01;7.90;99.90
20035;DHT22;10178;48.034;9.800;2023-04-25T02:36:26;7.50;99.90
20035;DHT22;10178;48.034;9.800;2023-04-25T02:38:53;7.00;99.90
20035;DHT22;10178;48.034;9.800;2023-04-25T02:41:18;6.90;99.90
20035;DHT22;10178;48.034;9.800;2023-04-25T02:43:44;7.60;99.90
20035;DHT22;10178;48.034;9.800;2023-04-25T02:46:09;8.50;99.90
20035;DHT22;10178;48.034;9.800;2023-04-25T02:48:35;9.20;99.90
20035;DHT22;10178;48.034;9.800;2023-04-25T02:51:01;9.70;99.90
20035;DHT22;10178;48.034;9.800;2023-04-25T02:53:26;10.00;99.90
20035;DHT22;10178;48.034;9.800;2023-04-25T02:55:52;10.20;99.90
20035;DHT22;10178;48.034;9.800;2023-04-25T02:58:18;10.40;99.90
20035;DHT22;10178;48.034;9.800;2023-04-25T03:00:43;10.30;99.90
20035;DHT22;10178;48.034;9.800;2023-04-25T03:03:09;10.20;99.90
20035;DHT22;10178;48.034;9.800;2023-04-25T03:05:35;9.00;99.90
20035;DHT22;10178;48.034;9.800;2023-04-25T03:08:00;8.70;99.90
20035;DHT22;10178;48.034;9.800;2023-04-25T03:10:26;8.50;99.90
20035;DHT22;10178;48.034;9.800;2023-04-25T03:12:51;8.70;99.90
20035;DHT22;10178;48.034;9.800;2023-04-25T03:15:17;8.60;99.90
20035;DHT22;10178;48.034;9.800;2023-04-25T03:17:44;9.10;99.90
20035;DHT22;10178;48.034;9.800;2023-04-25T03:20:10;9.40;99.90
20035;DHT22;10178;48.034;9.800;2023-04-25T03:22:36;9.50;99.90
20035;DHT22;10178;48.034;9.800;2023-04-25T03:25:01;9.90;99.90
20035;DHT22;10178;48.034;9.800;2023-04-25T03:27:27;10.10;99.90
20035;DHT22;10178;48.034;9.800;2023-04-25T03:29:52;10.30;99.90
20035;DHT22;10178;48.034;9.800;2023-04-25T03:32:18;10.40;99.90
20035;DHT22;10178;48.034;9.800;2023-04-25T03:34:44;10.50;99.90
20035;DHT22;10178;48.034;9.800;2023-04-25T03:37:09;10.50;99.90
20035;DHT22;10178;48.034;9.800;2023-04-25T03:39:35;10.10;99.90
20035;DHT22;10178;48.034;9.800;2023-04-25T03:42:01;9.90;99.90
20035;DHT22;10178;48.034;9.800;2023-04-25T03:44:28;9.50;99.90
20035;DHT22;10178;48.034;9.800;2023-04-25T03:46:53;9.40;99.90
20035;DHT22;10178;48.034;9.800;2023-04-25T03:49:19;9.40;99.90
20035;DHT22;10178;48.034;9.800;2023-04-25T03:51:44;9.70;99.90
20035;DHT22;10178;48.034;9.800;2023-04-25T03:54:10;9.80;99.90
20035;DHT22;10178;48.034;9.800;2023-04-25T03:56:36;9.50;99.90
20035;DHT22;10178;48.034;9.800;2023-04-25T03:59:01;9.10;99.90
20035;DHT22;10178;48.034;9.800;2023-04-25T04:01:27;8.50;99.90
20035;DHT22;10178;48.034;9.800;2023-04-25T04:03:53;8.30;99.90
20035;DHT22;10178;48.034;9.800;2023-04-25T04:06:18;7.90;99.90
20035;DHT22;10178;48.034;9.800;2023-04-25T04:08:46;8.00;99.90
20035;DHT22;10178;48.034;9.800;2023-04-25T04:11:12;8.10;99.90
20035;DHT22;10178;48.034;9.800;2023-04-25T04:13:37;8.30;99.90
20035;DHT22;10178;48.034;9.800;2023-04-25T04:16:03;8.50;99.90
20035;DHT22;10178;48.034;9.800;2023-04-25T04:18:29;8.60;99.90
20035;DHT22;10178;48.034;9.800;2023-04-25T04:20:55;8.50;99.90
20035;DHT22;10178;48.034;9.800;2023-04-25T04:23:23;8.60;99.90
20035;DHT22;10178;48.034;9.800;2023-04-25T04:25:49;8.60;99.90
20035;DHT22;10178;48.034;9.800;2023-04-25T04:28:15;8.60;99.90
20035;DHT22;10178;48.034;9.800;2023-04-25T04:30:41;8.20;99.90
20035;DHT22;10178;48.034;9.800;2023-04-25T04:33:08;8.30;99.90
20035;DHT22;10178;48.034;9.800;2023-04-25T04:35:34;8.10;99.90
20035;DHT22;10178;48.034;9.800;2023-04-25T04:38:00;8.10;99.90
20035;DHT22;10178;48.034;9.800;2023-04-25T04:40:25;8.10;99.90
20035;DHT22;10178;48.034;9.800;2023-04-25T04:42:51;7.90;99.90
20035;DHT22;10178;48.034;9.800;2023-04-25T04:45:18;7.50;99.90
20035;DHT22;10178;48.034;9.800;2023-04-25T04:47:44;7.40;99.90
20035;DHT22;10178;48.034;9.800;2023-04-25T04:50:10;7.40;99.90
20035;DHT22;10178;48.034;9.800;2023-04-25T04:52:36;7.60;99.90
20035;DHT22;10178;48.034;9.800;2023-04-25T04:55:04;7.50;99.90
20035;DHT22;10178;48.034;9.800;2023-04-25T04:57:30;7.30;99.90
20035;DHT22;10178;48.034;9.800;2023-04-25T04:59:58;7.20;99.90
20035;DHT22;10178;48.034;9.800;2023-04-25T05:02:25;7.30;99.90
20035;DHT22;10178;48.034;9.800;2023-04-25T05:04:51;7.50;99.90
20035;DHT22;10178;48.034;9.800;2023-04-25T05:07:17;7.90;99.90
20035;DHT22;10178;48.034;9.800;2023-04-25T05:09:42;8.40;99.90
20035;DHT22;10178;48.034;9.800;2023-04-25T05:12:08;8.90;99.90
20035;DHT22;10178;48.034;9.800;2023-04-25T05:14:34;8.30;99.90
20035;DHT22;10178;48.034;9.800;2023-04-25T05:17:00;8.60;99.90
20035;DHT22;10178;48.034;9.800;2023-04-25T05:19:25;9.10;99.90
20035;DHT22;10178;48.034;9.800;2023-04-25T05:21:52;9.40;99.90
20035;DHT22;10178;48.034;9.800;2023-04-25T05:24:17;9.60;99.90
20035;DHT22;10178;48.034;9.800;2023-04-25T05:26:43;9.80;99.90
20035;DHT22;10178;48.034;9.800;2023-04-25T05:29:09;9.90;99.90
20035;DHT22;10178;48.034;9.800;2023-04-25T05:31:36;10.00;99.90
20035;DHT22;10178;48.034;9.800;2023-04-25T05:34:02;10.10;99.90
20035;DHT22;10178;48.034;9.800;2023-04-25T05:36:27;10.10;99.90
20035;DHT22;10178;48.034;9.800;2023-04-25T05:38:53;10.20;99.90
20035;DHT22;10178;48.034;9.800;2023-04-25T05:41:19;10.10;99.90
20035;DHT22;10178;48.034;9.800;2023-04-25T05:43:45;10.20;99.90
20035;DHT22;10178;48.034;9.800;2023-04-25T05:46:12;10.30;99.90
20035;DHT22;10178;48.034;9.800;2023-04-25T05:48:39;10.20;99.90
20035;DHT22;10178;48.034;9.800;2023-04-25T05:51:04;10.20;99.90
20035;DHT22;10178;48.034;9.800;2023-04-25T05:53:30;10.30;99.90
20035;DHT22;10178;48.034;9.800;2023-04-25T05:55:56;10.40;99.90
20035;DHT22;10178;48.034;9.800;2023-04-25T05:58:21;10.30;99.90
20035;DHT22;10178;48.034;9.800;2023-04-25T06:00:47;10.40;99.90
20035;DHT22;10178;48.034;9.800;2023-04-25T06:03:13;10.40;99.90
20035;DHT22;10178;48.034;9.800;2023-04-25T06:05:41;10.50;99.90
20035;DHT22;10178;48.034;9.800;2023-04-25T06:08:08;10.50;99.90
20035;DHT22;10178;48.034;9.800;2023-04-25T06:10:34;9.70;99.90
20035;DHT22;10178;48.034;9.800;2023-04-25T06:12:59;9.70;99.90
20035;DHT22;10178;48.034;9.800;2023-04-25T06:15:25;9.80;99.90
20035;DHT22;10178;48.034;9.800;2023-04-25T06:17:51;9.80;99.90
20035;DHT22;10178;48.034;9.800;2023-04-25T06:20:16;10.00;99.90
20035;DHT22;10178;48.034;9.800;2023-04-25T06:22:42;10.30;99.90
20035;DHT22;10178;48.034;9.800;2023-04-25T06:25:07;10.10;99.90
20035;DHT22;10178;48.034;9.800;2023-04-25T06:27:34;10.30;99.90
20035;DHT22;10178;48.034;9.800;2023-04-25T06:29:59;10.50;99.90
20035;DHT22;10178;48.034;9.800;2023-04-25T06:32:25;10.70;99.90
20035;DHT22;10178;48.034;9.800;2023-04-25T06:34:52;10.90;99.90
20035;DHT22;10178;48.034;9.800;2023-04-25T06:37:18;11.10;99.90
20035;DHT22;10178;48.034;9.800;2023-04-25T06:39:44;11.20;99.90
20035;DHT22;10178;48.034;9.800;2023-04-25T06:42:09;11.30;99.90
20035;DHT22;10178;48.034;9.800;2023-04-25T06:44:35;11.30;99.90
20035;DHT22;10178;48.034;9.800;2023-04-25T06:47:01;11.30;99.90
20035;DHT22;10178;48.034;9.800;2023-04-25T06:49:26;11.20;99.90
20035;DHT22;10178;48.034;9.800;2023-04-25T06:51:52;11.20;99.90
20035;DHT22;10178;48.034;9.800;2023-04-25T06:54:17;11.40;99.90
20035;DHT22;10178;48.034;9.800;2023-04-25T06:56:43;11.20;99.90
20035;DHT22;10178;48.034;9.800;2023-04-25T06:59:09;10.90;99.90
20035;DHT22;10178;48.034;9.800;2023-04-25T07:01:34;11.10;99.90
20035;DHT22;10178;48.034;9.800;2023-04-25T07:04:01;11.40;99.90
20035;DHT22;10178;48.034;9.800;2023-04-25T07:06:26;11.70;99.90
20035;DHT22;10178;48.034;9.800;2023-04-25T07:08:53;11.90;99.90
20035;DHT22;10178;48.034;9.800;2023-04-25T07:11:18;11.80;99.90
20035;DHT22;10178;48.034;9.800;2023-04-25T07:13:44;11.90;99.90
20035;DHT22;10178;48.034;9.800;2023-04-25T07:16:10;11.90;99.90
20035;DHT22;10178;48.034;9.800;2023-04-25T07:18:36;11.80;99.90
20035;DHT22;10178;48.034;9.800;2023-04-25T07:21:01;11.70;99.90
20035;DHT22;10178;48.034;9.800;2023-04-25T07:23:27;11.80;99.90
20035;DHT22;10178;48.034;9.800;2023-04-25T07:25:52;11.80;99.90
20035;DHT22;10178;48.034;9.800;2023-04-25T07:28:18;11.90;99.90
20035;DHT22;10178;48.034;9.800;2023-04-25T07:30:44;11.90;99.90
20035;DHT22;10178;48.034;9.800;2023-04-25T07:33:09;11.90;99.90
20035;DHT22;10178;48.034;9.800;2023-04-25T07:35:35;11.80;99.90
20035;DHT22;10178;48.034;9.800;2023-04-25T07:38:02;11.80;99.90
20035;DHT22;10178;48.034;9.800;2023-04-25T07:40:28;11.70;99.90
20035;DHT22;10178;48.034;9.800;2023-04-25T07:42:54;11.70;99.90
20035;DHT22;10178;48.034;9.800;2023-04-25T07:45:19;11.50;99.90
20035;DHT22;10178;48.034;9.800;2023-04-25T07:47:45;11.40;99.90
20035;DHT22;10178;48.034;9.800;2023-04-25T07:50:11;11.30;99.90
20035;DHT22;10178;48.034;9.800;2023-04-25T07:52:36;11.30;99.90
20035;DHT22;10178;48.034;9.800;2023-04-25T07:55:02;11.30;99.90
20035;DHT22;10178;48.034;9.800;2023-04-25T07:57:29;11.30;99.90
20035;DHT22;10178;48.034;9.800;2023-04-25T07:59:54;11.40;99.90
20035;DHT22;10178;48.034;9.800;2023-04-25T08:02:20;11.40;99.90
20035;DHT22;10178;48.034;9.800;2023-04-25T08:04:45;11.20;99.90
20035;DHT22;10178;48.034;9.800;2023-04-25T08:07:11;10.90;99.90
20035;DHT22;10178;48.034;9.800;2023-04-25T08:09:37;10.90;99.90
20035;DHT22;10178;48.034;9.800;2023-04-25T08:12:03;10.90;99.90
20035;DHT22;10178;48.034;9.800;2023-04-25T08:14:30;10.90;99.90
20035;DHT22;10178;48.034;9.800;2023-04-25T08:17:02;10.90;99.90
20035;DHT22;10178;48.034;9.800;2023-04-25T08:19:29;11.00;99.90
20035;DHT22;10178;48.034;9.800;2023-04-25T08:21:55;11.00;99.90
20035;DHT22;10178;48.034;9.800;2023-04-25T08:24:22;11.00;99.90
20035;DHT22;10178;48.034;9.800;2023-04-25T08:26:48;11.00;99.90
20035;DHT22;10178;48.034;9.800;2023-04-25T08:29:14;10.90;99.90
20035;DHT22;10178;48.034;9.800;2023-04-25T08:31:39;10.90;99.90
20035;DHT22;10178;48.034;9.800;2023-04-25T08:34:05;10.90;99.90
20035;DHT22;10178;48.034;9.800;2023-04-25T08:36:31;10.90;99.90
20035;DHT22;10178;48.034;9.800;2023-04-25T08:38:57;10.90;99.90
20035;DHT22;10178;48.034;9.800;2023-04-25T08:41:23;10.90;99.90
20035;DHT22;10178;48.034;9.800;2023-04-25T08:43:49;10.90;99.90
20035;DHT22;10178;48.034;9.800;2023-04-25T08:46:18;10.90;99.90
20035;DHT22;10178;48.034;9.800;2023-04-25T08:48:45;10.90;99.90
20035;DHT22;10178;48.034;9.800;2023-04-25T08:51:17;11.00;99.90
20035;DHT22;10178;48.034;9.800;2023-04-25T08:53:49;10.80;99.90
20035;DHT22;10178;48.034;9.800;2023-04-25T08:56:16;10.60;99.90
20035;DHT22;10178;48.034;9.800;2023-04-25T08:58:51;10.00;99.90
20035;DHT22;10178;48.034;9.800;2023-04-25T09:01:18;9.60;99.90
20035;DHT22;10178;48.034;9.800;2023-04-25T09:03:44;9.70;99.90
20035;DHT22;10178;48.034;9.800;2023-04-25T09:06:13;9.60;99.90
20035;DHT22;10178;48.034;9.800;2023-04-25T09:08:39;9.70;99.90
20035;DHT22;10178;48.034;9.800;2023-04-25T09:11:06;10.00;99.90
20035;DHT22;10178;48.034;9.800;2023-04-25T09:13:32;10.20;99.90
20035;DHT22;10178;48.034;9.800;2023-04-25T09:15:58;10.30;99.90
20035;DHT22;10178;48.034;9.800;2023-04-25T09:18:28;10.20;99.90
20035;DHT22;10178;48.034;9.800;2023-04-25T09:20:58;10.00;99.90
20035;DHT22;10178;48.034;9.800;2023-04-25T09:23:30;9.80;99.90
20035;DHT22;10178;48.034;9.800;2023-04-25T09:25:56;10.00;99.90
20035;DHT22;10178;48.034;9.800;2023-04-25T09:28:25;10.20;99.90
20035;DHT22;10178;48.034;9.800;2023-04-25T09:30:55;10.40;99.90
20035;DHT22;10178;48.034;9.800;2023-04-25T09:33:33;10.40;99.90
20035;DHT22;10178;48.034;9.800;2023-04-25T09:36:07;10.40;99.90
20035;DHT22;10178;48.034;9.800;2023-04-25T09:38:41;10.40;99.90
20035;DHT22;10178;48.034;9.800;2023-04-25T09:41:08;10.10;99.90
20035;DHT22;10178;48.034;9.800;2023-04-25T09:43:34;10.00;99.90
20035;DHT22;10178;48.034;9.800;2023-04-25T09:46:00;9.00;99.90
20035;DHT22;10178;48.034;9.800;2023-04-25T09:48:27;9.00;99.90
20035;DHT22;10178;48.034;9.800;2023-04-25T09:51:12;9.00;99.90
20035;DHT22;10178;48.034;9.800;2023-04-25T09:53:44;9.20;99.90
20035;DHT22;10178;48.034;9.800;2023-04-25T09:56:12;8.60;99.90
20035;DHT22;10178;48.034;9.800;2023-04-25T09:58:39;8.20;99.90
20035;DHT22;10178;48.034;9.800;2023-04-25T10:01:07;7.20;99.90
20035;DHT22;10178;48.034;9.800;2023-04-25T10:03:37;6.80;99.90
20035;DHT22;10178;48.034;9.800;2023-04-25T10:06:12;7.50;99.90
20035;DHT22;10178;48.034;9.800;2023-04-25T10:08:38;7.60;99.90
20035;DHT22;10178;48.034;9.800;2023-04-25T10:11:08;8.10;99.90
20035;DHT22;10178;48.034;9.800;2023-04-25T10:13:35;8.60;99.90
20035;DHT22;10178;48.034;9.800;2023-04-25T10:16:03;8.70;99.90
20035;DHT22;10178;48.034;9.800;2023-04-25T10:18:30;9.10;99.90
20035;DHT22;10178;48.034;9.800;2023-04-25T10:21:04;9.10;99.90
20035;DHT22;10178;48.034;9.800;2023-04-25T10:23:31;9.10;99.90
20035;DHT22;10178;48.034;9.800;2023-04-25T10:25:57;9.00;99.90
20035;DHT22;10178;48.034;9.800;2023-04-25T10:28:24;9.40;99.90
20035;DHT22;10178;48.034;9.800;2023-04-25T10:31:03;9.10;99.90
20035;DHT22;10178;48.034;9.800;2023-04-25T10:33:35;9.40;99.90
20035;DHT22;10178;48.034;9.800;2023-04-25T10:36:15;9.60;99.90
20035;DHT22;10178;48.034;9.800;2023-04-25T10:38:45;9.80;99.90
20035;DHT22;10178;48.034;9.800;2023-04-25T10:41:11;10.00;99.90
20035;DHT22;10178;48.034;9.800;2023-04-25T10:43:42;10.10;99.90
20035;DHT22;10178;48.034;9.800;2023-04-25T10:46:26;10.20;99.90
20035;DHT22;10178;48.034;9.800;2023-04-25T10:48:56;10.20;99.90
20035;DHT22;10178;48.034;9.800;2023-04-25T10:56:21;10.20;99.90
20035;DHT22;10178;48.034;9.800;2023-04-25T10:58:48;10.20;99.90
20035;DHT22;10178;48.034;9.800;2023-04-25T11:01:15;10.20;99.90
20035;DHT22;10178;48.034;9.800;2023-04-25T11:03:42;10.20;99.90
20035;DHT22;10178;48.034;9.800;2023-04-25T11:06:23;10.10;99.90
20035;DHT22;10178;48.034;9.800;2023-04-25T11:08:52;10.10;99.90
20035;DHT22;10178;48.034;9.800;2023-04-25T11:11:18;10.20;99.90
20035;DHT22;10178;48.034;9.800;2023-04-25T11:13:47;10.20;99.90
20035;DHT22;10178;48.034;9.800;2023-04-25T11:16:13;10.10;99.90
20035;DHT22;10178;48.034;9.800;2023-04-25T11:18:45;10.10;99.90
20035;DHT22;10178;48.034;9.800;2023-04-25T11:21:11;10.10;99.90
20035;DHT22;10178;48.034;9.800;2023-04-25T11:23:37;10.20;99.90
20035;DHT22;10178;48.034;9.800;2023-04-25T11:26:06;10.20;99.90
20035;DHT22;10178;48.034;9.800;2023-04-25T11:28:32;10.20;99.90
20035;DHT22;10178;48.034;9.800;2023-04-25T11:30:58;10.20;99.90
20035;DHT22;10178;48.034;9.800;2023-04-25T11:33:24;10.20;99.90
20035;DHT22;10178;48.034;9.800;2023-04-25T11:35:53;10.20;99.90
20035;DHT22;10178;48.034;9.800;2023-04-25T11:38:19;10.20;99.90
20035;DHT22;10178;48.034;9.800;2023-04-25T11:40:50;10.20;99.90
20035;DHT22;10178;48.034;9.800;2023-04-25T11:43:15;10.20;99.90
20035;DHT22;10178;48.034;9.800;2023-04-25T11:45:46;10.30;99.90
20035;DHT22;10178;48.034;9.800;2023-04-25T11:48:12;10.30;99.90
20035;DHT22;10178;48.034;9.800;2023-04-25T11:50:39;10.30;99.90
20035;DHT22;10178;48.034;9.800;2023-04-25T11:53:05;10.30;99.90
20035;DHT22;10178;48.034;9.800;2023-04-25T11:55:31;10.30;99.90
20035;DHT22;10178;48.034;9.800;2023-04-25T11:58:00;10.40;99.90
20035;DHT22;10178;48.034;9.800;2023-04-25T12:00:26;10.30;99.90
20035;DHT22;10178;48.034;9.800;2023-04-25T12:02:54;10.30;99.90
20035;DHT22;10178;48.034;9.800;2023-04-25T12:05:24;10.20;99.90
20035;DHT22;10178;48.034;9.800;2023-04-25T12:07:50;10.20;99.90
20035;DHT22;10178;48.034;9.800;2023-04-25T12:10:17;10.20;99.90
20035;DHT22;10178;48.034;9.800;2023-04-25T12:12:45;10.20;99.90
20035;DHT22;10178;48.034;9.800;2023-04-25T12:17:48;10.10;99.90
20035;DHT22;10178;48.034;9.800;2023-04-25T12:20:34;10.10;99.90
20035;DHT22;10178;48.034;9.800;2023-04-25T12:23:00;10.00;99.90
20035;DHT22;10178;48.034;9.800;2023-04-25T12:25:42;9.90;99.90
20035;DHT22;10178;48.034;9.800;2023-04-25T12:28:18;9.90;99.90
20035;DHT22;10178;48.034;9.800;2023-04-25T12:31:05;9.90;99.90
20035;DHT22;10178;48.034;9.800;2023-04-25T12:33:32;9.90;99.90
20035;DHT22;10178;48.034;9.800;2023-04-25T12:35:59;10.00;99.90
20035;DHT22;10178;48.034;9.800;2023-04-25T12:38:30;10.00;99.90
20035;DHT22;10178;48.034;9.800;2023-04-25T12:40:57;10.00;99.90
20035;DHT22;10178;48.034;9.800;2023-04-25T12:43:23;9.90;99.90
20035;DHT22;10178;48.034;9.800;2023-04-25T12:45:52;10.00;99.90
20035;DHT22;10178;48.034;9.800;2023-04-25T12:48:19;10.00;99.90
20035;DHT22;10178;48.034;9.800;2023-04-25T12:50:45;10.10;99.90
20035;DHT22;10178;48.034;9.800;2023-04-25T12:53:17;10.10;99.90
20035;DHT22;10178;48.034;9.800;2023-04-25T12:55:43;10.10;99.90
20035;DHT22;10178;48.034;9.800;2023-04-25T12:58:11;10.00;99.90
20035;DHT22;10178;48.034;9.800;2023-04-25T13:00:37;10.00;99.90
20035;DHT22;10178;48.034;9.800;2023-04-25T13:03:03;10.10;99.90
20035;DHT22;10178;48.034;9.800;2023-04-25T13:05:30;10.00;99.90
20035;DHT22;10178;48.034;9.800;2023-04-25T13:07:56;10.00;99.90
20035;DHT22;10178;48.034;9.800;2023-04-25T13:10:22;10.00;99.90
20035;DHT22;10178;48.034;9.800;2023-04-25T13:12:47;9.90;99.90
20035;DHT22;10178;48.034;9.800;2023-04-25T13:15:13;9.90;99.90
20035;DHT22;10178;48.034;9.800;2023-04-25T13:17:41;9.90;99.90
20035;DHT22;10178;48.034;9.800;2023-04-25T13:20:07;9.90;99.90
20035;DHT22;10178;48.034;9.800;2023-04-25T13:22:37;9.90;99.90
20035;DHT22;10178;48.034;9.800;2023-04-25T13:25:04;9.90;99.90
20035;DHT22;10178;48.034;9.800;2023-04-25T13:27:31;10.00;99.90
20035;DHT22;10178;48.034;9.800;2023-04-25T13:29:58;10.00;99.90
20035;DHT22;10178;48.034;9.800;2023-04-25T13:32:23;10.00;99.90
20035;DHT22;10178;48.034;9.800;2023-04-25T13:34:51;10.10;99.90
20035;DHT22;10178;48.034;9.800;2023-04-25T13:37:18;10.10;99.90
20035;DHT22;10178;48.034;9.800;2023-04-25T13:39:43;10.00;99.90
20035;DHT22;10178;48.034;9.800;2023-04-25T13:42:09;10.00;99.90
20035;DHT22;10178;48.034;9.800;2023-04-25T13:44:35;10.10;99.90
20035;DHT22;10178;48.034;9.800;2023-04-25T13:47:00;10.10;99.90
20035;DHT22;10178;48.034;9.800;2023-04-25T13:49:26;10.10;99.90
20035;DHT22;10178;48.034;9.800;2023-04-25T13:51:52;10.10;99.90
20035;DHT22;10178;48.034;9.800;2023-04-25T13:54:17;10.20;99.90
20035;DHT22;10178;48.034;9.800;2023-04-25T13:56:43;10.20;99.90
20035;DHT22;10178;48.034;9.800;2023-04-25T13:59:09;10.30;99.90
20035;DHT22;10178;48.034;9.800;2023-04-25T14:01:34;10.40;99.90
20035;DHT22;10178;48.034;9.800;2023-04-25T14:04:01;10.40;99.90
20035;DHT22;10178;48.034;9.800;2023-04-25T14:06:29;10.40;99.90
20035;DHT22;10178;48.034;9.800;2023-04-25T14:08:54;10.50;99.90
20035;DHT22;10178;48.034;9.800;2023-04-25T14:11:20;10.50;99.90
20035;DHT22;10178;48.034;9.800;2023-04-25T14:13:46;10.50;99.90
20035;DHT22;10178;48.034;9.800;2023-04-25T14:16:12;10.50;99.90
20035;DHT22;10178;48.034;9.800;2023-04-25T14:18:38;10.50;99.90
20035;DHT22;10178;48.034;9.800;2023-04-25T14:21:04;10.50;99.90
20035;DHT22;10178;48.034;9.800;2023-04-25T14:23:30;10.40;99.90
20035;DHT22;10178;48.034;9.800;2023-04-25T14:25:55;10.40;99.90
20035;DHT22;10178;48.034;9.800;2023-04-25T14:28:21;10.50;99.90
20035;DHT22;10178;48.034;9.800;2023-04-25T14:30:47;10.50;99.90
20035;DHT22;10178;48.034;9.800;2023-04-25T14:33:12;10.50;99.90
20035;DHT22;10178;48.034;9.800;2023-04-25T14:35:39;10.50;99.90
20035;DHT22;10178;48.034;9.800;2023-04-25T14:38:05;10.40;99.90
20035;DHT22;10178;48.034;9.800;2023-04-25T14:40:31;10.40;99.90
20035;DHT22;10178;48.034;9.800;2023-04-25T14:42:56;10.50;99.90
20035;DHT22;10178;48.034;9.800;2023-04-25T14:45:22;10.50;99.90
20035;DHT22;10178;48.034;9.800;2023-04-25T14:47:48;10.40;99.90
20035;DHT22;10178;48.034;9.800;2023-04-25T14:50:13;10.60;99.90
20035;DHT22;10178;48.034;9.800;2023-04-25T14:52:39;10.90;99.90
20035;DHT22;10178;48.034;9.800;2023-04-25T14:55:05;11.40;99.90
20035;DHT22;10178;48.034;9.800;2023-04-25T14:57:32;11.70;99.90
20035;DHT22;10178;48.034;9.800;2023-04-25T14:59:58;12.00;99.90
20035;DHT22;10178;48.034;9.800;2023-04-25T15:02:24;12.20;99.90
20035;DHT22;10178;48.034;9.800;2023-04-25T15:04:51;12.30;99.90
20035;DHT22;10178;48.034;9.800;2023-04-25T15:07:16;12.40;99.90
20035;DHT22;10178;48.034;9.800;2023-04-25T15:09:42;12.50;99.90
20035;DHT22;10178;48.034;9.800;2023-04-25T15:12:08;12.50;99.90
20035;DHT22;10178;48.034;9.800;2023-04-25T15:14:34;12.50;99.90
20035;DHT22;10178;48.034;9.800;2023-04-25T15:17:00;12.50;99.90
20035;DHT22;10178;48.034;9.800;2023-04-25T15:19:26;12.50;99.90
20035;DHT22;10178;48.034;9.800;2023-04-25T15:21:52;12.50;99.90
20035;DHT22;10178;48.034;9.800;2023-04-25T15:24:18;12.50;99.90
20035;DHT22;10178;48.034;9.800;2023-04-25T15:26:44;12.50;99.90
20035;DHT22;10178;48.034;9.800;2023-04-25T15:29:11;12.60;99.90
20035;DHT22;10178;48.034;9.800;2023-04-25T15:31:37;12.50;99.90
20035;DHT22;10178;48.034;9.800;2023-04-25T15:34:02;12.50;99.90
20035;DHT22;10178;48.034;9.800;2023-04-25T15:36:28;12.50;99.90
20035;DHT22;10178;48.034;9.800;2023-04-25T15:38:54;12.50;99.90